sensor_id;sensor_type;location;lat;lon;timestamp;P1;P2;P0
59179;PMS7003;44956;52.422;20.818;2024-01-16T00:01:45;3.00;3.00;0.00
59179;PMS7003;44956;52.422;20.818;2024-01-16T00:04:48;1.50;0.75;0.00
59179;PMS7003;44956;52.422;20.818;2024-01-16T00:07:51;6.25;3.00;0.75
59179;PMS7003;44956;52.422;20.818;2024-01-16T00:10:53;2.33;2.33;1.00
59179;PMS7003;44956;52.422;20.818;2024-01-16T00:13:57;4.00;3.00;0.33
59179;PMS7003;44956;52.422;20.818;2024-01-16T00:16:59;5.00;3.00;0.75
59179;PMS7003;44956;52.422;20.818;2024-01-16T00:20:02;4.50;4.00;1.00
59179;PMS7003;44956;52.422;20.818;2024-01-16T00:23:07;4.00;4.00;1.00
59179;PMS7003;44956;52.422;20.818;2024-01-16T00:26:19;1.00;1.00;1.00
59179;PMS7003;44956;52.422;20.818;2024-01-16T00:29:23;6.00;2.00;1.00
59179;PMS7003;44956;52.422;20.818;2024-01-16T00:32:26;4.00;3.00;1.00
59179;PMS7003;44956;52.422;20.818;2024-01-16T00:35:28;2.50;2.00;0.00
59179;PMS7003;44956;52.422;20.818;2024-01-16T00:38:34;6.00;4.50;2.00
59179;PMS7003;44956;52.422;20.818;2024-01-16T00:41:37;1.00;1.00;0.00
59179;PMS7003;44956;52.422;20.818;2024-01-16T00:44:40;4.50;2.00;1.00
59179;PMS7003;44956;52.422;20.818;2024-01-16T00:47:43;3.67;2.33;1.00
59179;PMS7003;44956;52.422;20.818;2024-01-16T00:50:46;1.00;1.00;0.00
59179;PMS7003;44956;52.422;20.818;2024-01-16T00:53:51;2.50;2.50;0.50
59179;PMS7003;44956;52.422;20.818;2024-01-16T00:56:54;2.00;1.00;0.25
59179;PMS7003;44956;52.422;20.818;2024-01-16T01:00:01;3.67;1.00;0.00
59179;PMS7003;44956;52.422;20.818;2024-01-16T01:03:06;2.00;2.00;0.00
59179;PMS7003;44956;52.422;20.818;2024-01-16T01:06:08;1.50;1.50;0.00
59179;PMS7003;44956;52.422;20.818;2024-01-16T01:09:11;1.00;1.00;0.00
59179;PMS7003;44956;52.422;20.818;2024-01-16T01:12:14;1.00;1.00;1.00
59179;PMS7003;44956;52.422;20.818;2024-01-16T01:15:17;1.50;1.50;0.00
59179;PMS7003;44956;52.422;20.818;2024-01-16T01:18:20;1.00;1.00;0.25
59179;PMS7003;44956;52.422;20.818;2024-01-16T01:21:23;4.00;1.00;0.00
59179;PMS7003;44956;52.422;20.818;2024-01-16T01:24:25;6.50;1.00;0.00
59179;PMS7003;44956;52.422;20.818;2024-01-16T01:27:28;1.50;1.50;0.00
59179;PMS7003;44956;52.422;20.818;2024-01-16T01:30:31;3.00;3.00;0.25
59179;PMS7003;44956;52.422;20.818;2024-01-16T01:33:34;0.75;0.75;0.00
59179;PMS7003;44956;52.422;20.818;2024-01-16T01:36:37;0.00;0.00;0.00
59179;PMS7003;44956;52.422;20.818;2024-01-16T01:39:40;1.00;1.00;0.50
59179;PMS7003;44956;52.422;20.818;2024-01-16T01:42:43;1.00;1.00;0.50
59179;PMS7003;44956;52.422;20.818;2024-01-16T01:45:47;4.50;3.00;1.00
59179;PMS7003;44956;52.422;20.818;2024-01-16T01:49:13;4.00;3.00;0.00
59179;PMS7003;44956;52.422;20.818;2024-01-16T01:52:18;6.00;6.00;2.00
59179;PMS7003;44956;52.422;20.818;2024-01-16T01:55:20;4.00;3.00;1.00
59179;PMS7003;44956;52.422;20.818;2024-01-16T01:58:23;3.00;3.00;1.00
59179;PMS7003;44956;52.422;20.818;2024-01-16T02:01:26;8.50;6.50;3.00
59179;PMS7003;44956;52.422;20.818;2024-01-16T02:04:31;3.50;3.50;2.50
59179;PMS7003;44956;52.422;20.818;2024-01-16T02:07:34;2.75;2.00;0.00
59179;PMS7003;44956;52.422;20.818;2024-01-16T02:10:37;3.25;3.00;3.00
59179;PMS7003;44956;52.422;20.818;2024-01-16T02:13:41;6.00;6.00;3.00
59179;PMS7003;44956;52.422;20.818;2024-01-16T02:16:44;4.00;4.00;1.50
59179;PMS7003;44956;52.422;20.818;2024-01-16T02:19:47;1.00;1.00;1.00
59179;PMS7003;44956;52.422;20.818;2024-01-16T02:22:50;3.00;3.00;1.00
59179;PMS7003;44956;52.422;20.818;2024-01-16T02:25:56;2.00;2.00;1.00
59179;PMS7003;44956;52.422;20.818;2024-01-16T02:29:02;6.00;3.75;1.00
59179;PMS7003;44956;52.422;20.818;2024-01-16T02:32:06;1.50;1.50;0.75
59179;PMS7003;44956;52.422;20.818;2024-01-16T02:35:09;3.00;3.00;1.00
59179;PMS7003;44956;52.422;20.818;2024-01-16T02:38:12;4.50;4.00;1.50
59179;PMS7003;44956;52.422;20.818;2024-01-16T02:41:15;3.75;3.75;1.00
59179;PMS7003;44956;52.422;20.818;2024-01-16T02:44:18;2.50;2.50;1.00
59179;PMS7003;44956;52.422;20.818;2024-01-16T02:47:21;3.25;3.25;2.00
59179;PMS7003;44956;52.422;20.818;2024-01-16T02:50:24;6.75;4.50;1.00
59179;PMS7003;44956;52.422;20.818;2024-01-16T02:53:27;4.00;0.75;0.25
59179;PMS7003;44956;52.422;20.818;2024-01-16T02:56:30;3.00;1.00;0.25
59179;PMS7003;44956;52.422;20.818;2024-01-16T02:59:33;2.50;2.50;1.00
59179;PMS7003;44956;52.422;20.818;2024-01-16T03:02:36;0.00;0.00;0.00
59179;PMS7003;44956;52.422;20.818;2024-01-16T03:05:39;2.25;1.00;0.00
59179;PMS7003;44956;52.422;20.818;2024-01-16T03:08:42;1.00;1.00;0.00
59179;PMS7003;44956;52.422;20.818;2024-01-16T03:11:44;2.00;1.00;0.00
59179;PMS7003;44956;52.422;20.818;2024-01-16T03:14:47;2.00;1.00;0.00
59179;PMS7003;44956;52.422;20.818;2024-01-16T03:17:50;1.00;1.00;0.50
59179;PMS7003;44956;52.422;20.818;2024-01-16T03:20:52;3.00;1.00;0.00
59179;PMS7003;44956;52.422;20.818;2024-01-16T03:23:55;3.75;1.00;0.00
59179;PMS7003;44956;52.422;20.818;2024-01-16T03:26:58;1.50;1.50;0.25
59179;PMS7003;44956;52.422;20.818;2024-01-16T03:30:01;2.50;2.50;0.75
59179;PMS7003;44956;52.422;20.818;2024-01-16T03:33:05;6.00;1.00;0.00
59179;PMS7003;44956;52.422;20.818;2024-01-16T03:36:09;0.50;0.50;0.00
59179;PMS7003;44956;52.422;20.818;2024-01-16T03:39:12;4.00;3.00;0.00
59179;PMS7003;44956;52.422;20.818;2024-01-16T03:42:14;1.00;1.00;0.00
59179;PMS7003;44956;52.422;20.818;2024-01-16T03:45:17;4.00;1.00;0.00
59179;PMS7003;44956;52.422;20.818;2024-01-16T03:48:20;0.75;0.75;0.00
59179;PMS7003;44956;52.422;20.818;2024-01-16T03:51:22;2.00;1.00;0.00
59179;PMS7003;44956;52.422;20.818;2024-01-16T03:54:25;2.50;0.25;0.00
59179;PMS7003;44956;52.422;20.818;2024-01-16T03:57:28;3.00;3.00;0.75
59179;PMS7003;44956;52.422;20.818;2024-01-16T04:00:31;1.00;1.00;0.75
59179;PMS7003;44956;52.422;20.818;2024-01-16T04:03:33;1.00;1.00;0.00
59179;PMS7003;44956;52.422;20.818;2024-01-16T04:06:41;4.50;3.50;1.00
59179;PMS7003;44956;52.422;20.818;2024-01-16T04:09:44;3.00;0.75;0.00
59179;PMS7003;44956;52.422;20.818;2024-01-16T04:12:49;5.50;1.00;0.00
59179;PMS7003;44956;52.422;20.818;2024-01-16T04:15:52;3.00;1.00;0.00
59179;PMS7003;44956;52.422;20.818;2024-01-16T04:18:54;1.00;1.00;1.00
59179;PMS7003;44956;52.422;20.818;2024-01-16T04:21:57;1.50;1.50;0.75
59179;PMS7003;44956;52.422;20.818;2024-01-16T04:25:00;3.00;1.00;0.00
59179;PMS7003;44956;52.422;20.818;2024-01-16T04:28:03;3.00;2.50;1.00
59179;PMS7003;44956;52.422;20.818;2024-01-16T04:31:06;3.50;3.00;0.50
59179;PMS7003;44956;52.422;20.818;2024-01-16T04:34:09;1.00;1.00;0.00
59179;PMS7003;44956;52.422;20.818;2024-01-16T04:37:12;1.00;1.00;0.00
59179;PMS7003;44956;52.422;20.818;2024-01-16T04:40:15;3.25;1.50;1.00
59179;PMS7003;44956;52.422;20.818;2024-01-16T04:43:18;1.50;1.50;1.00
59179;PMS7003;44956;52.422;20.818;2024-01-16T04:46:20;7.00;6.00;1.00
59179;PMS7003;44956;52.422;20.818;2024-01-16T04:49:23;3.00;3.00;1.00
59179;PMS7003;44956;52.422;20.818;2024-01-16T04:52:26;1.50;1.50;0.00
59179;PMS7003;44956;52.422;20.818;2024-01-16T04:55:30;3.00;3.00;1.00
59179;PMS7003;44956;52.422;20.818;2024-01-16T04:58:32;1.00;1.00;1.00
59179;PMS7003;44956;52.422;20.818;2024-01-16T05:01:36;1.00;1.00;0.00
59179;PMS7003;44956;52.422;20.818;2024-01-16T05:04:39;1.00;1.00;0.25
59179;PMS7003;44956;52.422;20.818;2024-01-16T05:07:42;4.00;1.00;0.00
59179;PMS7003;44956;52.422;20.818;2024-01-16T05:10:44;1.00;1.00;0.00
59179;PMS7003;44956;52.422;20.818;2024-01-16T05:13:47;3.00;3.00;1.00
59179;PMS7003;44956;52.422;20.818;2024-01-16T05:16:51;4.00;3.00;1.00
59179;PMS7003;44956;52.422;20.818;2024-01-16T05:19:54;3.75;3.75;1.00
59179;PMS7003;44956;52.422;20.818;2024-01-16T05:22:57;3.00;1.00;0.75
59179;PMS7003;44956;52.422;20.818;2024-01-16T05:26:00;3.50;3.50;1.00
59179;PMS7003;44956;52.422;20.818;2024-01-16T05:29:03;3.00;2.00;0.00
59179;PMS7003;44956;52.422;20.818;2024-01-16T05:32:06;3.25;3.00;0.75
59179;PMS7003;44956;52.422;20.818;2024-01-16T05:35:09;3.25;3.00;1.00
59179;PMS7003;44956;52.422;20.818;2024-01-16T05:38:15;1.00;1.00;1.00
59179;PMS7003;44956;52.422;20.818;2024-01-16T05:41:17;1.00;1.00;1.00
59179;PMS7003;44956;52.422;20.818;2024-01-16T05:44:20;3.25;3.00;0.25
59179;PMS7003;44956;52.422;20.818;2024-01-16T05:47:23;3.00;3.00;0.00
59179;PMS7003;44956;52.422;20.818;2024-01-16T05:50:30;1.50;1.50;0.25
59179;PMS7003;44956;52.422;20.818;2024-01-16T05:53:33;6.00;1.00;1.00
59179;PMS7003;44956;52.422;20.818;2024-01-16T05:56:36;2.25;2.00;0.00
59179;PMS7003;44956;52.422;20.818;2024-01-16T05:59:39;1.50;1.50;1.00
59179;PMS7003;44956;52.422;20.818;2024-01-16T06:02:42;3.25;3.25;1.00
59179;PMS7003;44956;52.422;20.818;2024-01-16T06:05:45;4.00;4.00;1.50
59179;PMS7003;44956;52.422;20.818;2024-01-16T06:08:50;1.50;1.50;0.00
59179;PMS7003;44956;52.422;20.818;2024-01-16T06:11:52;2.00;2.00;0.25
59179;PMS7003;44956;52.422;20.818;2024-01-16T06:14:56;3.00;3.00;1.00
59179;PMS7003;44956;52.422;20.818;2024-01-16T06:18:00;7.00;3.00;1.00
59179;PMS7003;44956;52.422;20.818;2024-01-16T06:21:03;3.25;2.50;0.75
59179;PMS7003;44956;52.422;20.818;2024-01-16T06:24:06;2.50;2.50;1.00
59179;PMS7003;44956;52.422;20.818;2024-01-16T06:27:10;3.00;3.00;1.00
59179;PMS7003;44956;52.422;20.818;2024-01-16T06:30:13;3.00;3.00;1.00
59179;PMS7003;44956;52.422;20.818;2024-01-16T06:33:16;3.00;1.00;0.00
59179;PMS7003;44956;52.422;20.818;2024-01-16T06:36:19;3.25;3.00;1.00
59179;PMS7003;44956;52.422;20.818;2024-01-16T06:39:23;5.50;1.00;1.00
59179;PMS7003;44956;52.422;20.818;2024-01-16T06:42:25;1.00;1.00;1.00
59179;PMS7003;44956;52.422;20.818;2024-01-16T06:45:28;3.50;1.00;0.00
59179;PMS7003;44956;52.422;20.818;2024-01-16T06:48:31;4.00;3.75;1.00
59179;PMS7003;44956;52.422;20.818;2024-01-16T06:51:34;1.00;1.00;0.00
59179;PMS7003;44956;52.422;20.818;2024-01-16T06:54:37;5.50;3.00;1.00
59179;PMS7003;44956;52.422;20.818;2024-01-16T06:57:40;1.25;0.75;0.00
59179;PMS7003;44956;52.422;20.818;2024-01-16T07:00:42;3.25;1.00;0.75
59179;PMS7003;44956;52.422;20.818;2024-01-16T07:03:45;1.50;1.50;1.00
59179;PMS7003;44956;52.422;20.818;2024-01-16T07:06:48;0.00;0.00;0.00
59179;PMS7003;44956;52.422;20.818;2024-01-16T07:09:51;3.25;2.00;0.00
59179;PMS7003;44956;52.422;20.818;2024-01-16T07:12:54;3.25;1.00;0.50
59179;PMS7003;44956;52.422;20.818;2024-01-16T07:15:59;2.50;2.00;0.75
59179;PMS7003;44956;52.422;20.818;2024-01-16T07:19:01;4.00;3.00;1.00
59179;PMS7003;44956;52.422;20.818;2024-01-16T07:22:05;4.75;3.50;1.00
59179;PMS7003;44956;52.422;20.818;2024-01-16T07:25:07;1.75;1.00;1.00
59179;PMS7003;44956;52.422;20.818;2024-01-16T07:28:11;3.00;3.00;1.00
59179;PMS7003;44956;52.422;20.818;2024-01-16T07:31:14;1.00;1.00;1.00
59179;PMS7003;44956;52.422;20.818;2024-01-16T07:34:19;4.75;3.75;1.00
59179;PMS7003;44956;52.422;20.818;2024-01-16T07:37:24;6.00;5.50;3.00
59179;PMS7003;44956;52.422;20.818;2024-01-16T07:40:27;2.50;2.50;1.00
59179;PMS7003;44956;52.422;20.818;2024-01-16T07:43:30;3.50;3.00;1.00
59179;PMS7003;44956;52.422;20.818;2024-01-16T07:46:33;1.50;1.50;1.00
59179;PMS7003;44956;52.422;20.818;2024-01-16T07:49:36;4.00;3.75;1.00
59179;PMS7003;44956;52.422;20.818;2024-01-16T07:52:39;4.00;3.00;1.50
59179;PMS7003;44956;52.422;20.818;2024-01-16T07:55:42;1.00;1.00;0.00
59179;PMS7003;44956;52.422;20.818;2024-01-16T07:58:45;3.75;3.75;1.00
59179;PMS7003;44956;52.422;20.818;2024-01-16T08:01:48;3.25;3.00;1.00
59179;PMS7003;44956;52.422;20.818;2024-01-16T08:04:51;6.00;3.00;1.00
59179;PMS7003;44956;52.422;20.818;2024-01-16T08:07:54;4.00;1.00;0.25
59179;PMS7003;44956;52.422;20.818;2024-01-16T08:10:57;3.50;2.00;1.00
59179;PMS7003;44956;52.422;20.818;2024-01-16T08:13:59;3.25;3.25;0.25
59179;PMS7003;44956;52.422;20.818;2024-01-16T08:17:02;3.00;3.00;1.00
59179;PMS7003;44956;52.422;20.818;2024-01-16T08:20:06;3.00;3.00;1.00
59179;PMS7003;44956;52.422;20.818;2024-01-16T08:23:12;3.50;3.50;1.00
59179;PMS7003;44956;52.422;20.818;2024-01-16T08:26:15;3.00;3.00;1.00
59179;PMS7003;44956;52.422;20.818;2024-01-16T08:29:18;7.00;3.25;1.00
59179;PMS7003;44956;52.422;20.818;2024-01-16T08:32:21;6.25;6.00;3.00
59179;PMS7003;44956;52.422;20.818;2024-01-16T08:35:24;4.00;4.00;2.00
59179;PMS7003;44956;52.422;20.818;2024-01-16T08:38:27;3.25;1.00;0.75
59179;PMS7003;44956;52.422;20.818;2024-01-16T08:41:30;4.50;2.50;0.00
59179;PMS7003;44956;52.422;20.818;2024-01-16T08:44:33;3.25;3.25;1.00
59179;PMS7003;44956;52.422;20.818;2024-01-16T08:47:36;4.00;2.50;1.00
59179;PMS7003;44956;52.422;20.818;2024-01-16T08:50:39;2.00;2.00;1.00
59179;PMS7003;44956;52.422;20.818;2024-01-16T08:53:42;3.75;3.75;1.50
59179;PMS7003;44956;52.422;20.818;2024-01-16T08:56:45;6.25;3.50;1.00
59179;PMS7003;44956;52.422;20.818;2024-01-16T08:59:48;6.00;6.00;2.00
59179;PMS7003;44956;52.422;20.818;2024-01-16T09:02:51;3.50;3.00;1.00
59179;PMS7003;44956;52.422;20.818;2024-01-16T09:05:54;2.50;0.25;0.00
59179;PMS7003;44956;52.422;20.818;2024-01-16T09:08:57;4.50;3.00;1.00
59179;PMS7003;44956;52.422;20.818;2024-01-16T09:12:00;4.00;3.00;1.00
59179;PMS7003;44956;52.422;20.818;2024-01-16T09:15:03;4.00;4.00;1.00
59179;PMS7003;44956;52.422;20.818;2024-01-16T09:18:07;3.50;3.50;0.75
59179;PMS7003;44956;52.422;20.818;2024-01-16T09:21:10;3.00;3.00;0.75
59179;PMS7003;44956;52.422;20.818;2024-01-16T09:24:13;6.25;3.00;1.00
59179;PMS7003;44956;52.422;20.818;2024-01-16T09:27:16;3.00;1.50;0.50
59179;PMS7003;44956;52.422;20.818;2024-01-16T09:30:19;6.00;5.50;3.00
59179;PMS7003;44956;52.422;20.818;2024-01-16T09:33:24;3.75;3.75;1.00
59179;PMS7003;44956;52.422;20.818;2024-01-16T09:36:30;4.00;3.75;1.00
59179;PMS7003;44956;52.422;20.818;2024-01-16T09:39:33;3.00;3.00;1.00
59179;PMS7003;44956;52.422;20.818;2024-01-16T09:42:37;4.75;3.00;0.00
59179;PMS7003;44956;52.422;20.818;2024-01-16T09:45:40;3.00;1.00;0.00
59179;PMS7003;44956;52.422;20.818;2024-01-16T09:48:44;1.00;1.00;0.25
59179;PMS7003;44956;52.422;20.818;2024-01-16T09:51:47;1.00;1.00;0.00
59179;PMS7003;44956;52.422;20.818;2024-01-16T09:54:50;5.00;3.25;1.00
59179;PMS7003;44956;52.422;20.818;2024-01-16T09:57:52;1.50;1.50;0.50
59179;PMS7003;44956;52.422;20.818;2024-01-16T10:00:56;3.25;2.50;1.00
59179;PMS7003;44956;52.422;20.818;2024-01-16T10:03:59;8.50;3.00;1.00
59179;PMS7003;44956;52.422;20.818;2024-01-16T10:07:02;6.50;3.00;1.00
59179;PMS7003;44956;52.422;20.818;2024-01-16T10:10:07;1.00;1.00;0.00
59179;PMS7003;44956;52.422;20.818;2024-01-16T10:13:13;5.00;5.00;3.00
59179;PMS7003;44956;52.422;20.818;2024-01-16T10:16:17;3.25;3.25;1.00
59179;PMS7003;44956;52.422;20.818;2024-01-16T10:19:23;5.50;4.50;3.00
59179;PMS7003;44956;52.422;20.818;2024-01-16T10:22:52;9.00;4.00;2.00
59179;PMS7003;44956;52.422;20.818;2024-01-16T10:26:06;6.50;4.50;1.00
59179;PMS7003;44956;52.422;20.818;2024-01-16T10:29:12;1.50;1.50;1.00
59179;PMS7003;44956;52.422;20.818;2024-01-16T10:32:26;3.00;3.00;1.00
59179;PMS7003;44956;52.422;20.818;2024-01-16T10:35:33;3.00;1.00;0.00
59179;PMS7003;44956;52.422;20.818;2024-01-16T10:38:36;6.50;4.50;1.00
59179;PMS7003;44956;52.422;20.818;2024-01-16T10:41:40;3.00;3.00;0.50
59179;PMS7003;44956;52.422;20.818;2024-01-16T10:44:54;3.00;2.50;0.00
59179;PMS7003;44956;52.422;20.818;2024-01-16T10:48:15;2.00;2.00;0.00
59179;PMS7003;44956;52.422;20.818;2024-01-16T10:51:19;3.25;1.50;1.00
59179;PMS7003;44956;52.422;20.818;2024-01-16T10:54:22;7.50;3.00;1.00
59179;PMS7003;44956;52.422;20.818;2024-01-16T10:57:25;3.25;3.25;1.00
59179;PMS7003;44956;52.422;20.818;2024-01-16T11:00:28;4.00;3.75;1.50
59179;PMS7003;44956;52.422;20.818;2024-01-16T11:03:35;5.00;3.25;1.00
59179;PMS7003;44956;52.422;20.818;2024-01-16T11:06:51;6.00;4.00;1.00
59179;PMS7003;44956;52.422;20.818;2024-01-16T11:09:55;3.00;3.00;0.50
59179;PMS7003;44956;52.422;20.818;2024-01-16T11:13:02;9.25;3.25;1.00
59179;PMS7003;44956;52.422;20.818;2024-01-16T11:16:06;4.00;3.50;2.00
59179;PMS7003;44956;52.422;20.818;2024-01-16T11:19:11;3.25;3.25;1.00
59179;PMS7003;44956;52.422;20.818;2024-01-16T11:22:34;4.00;3.00;1.00
59179;PMS7003;44956;52.422;20.818;2024-01-16T11:25:39;5.50;4.00;1.00
59179;PMS7003;44956;52.422;20.818;2024-01-16T11:28:42;3.25;3.00;1.00
59179;PMS7003;44956;52.422;20.818;2024-01-16T11:31:44;3.00;3.00;1.00
59179;PMS7003;44956;52.422;20.818;2024-01-16T11:37:51;5.00;3.00;1.00
59179;PMS7003;44956;52.422;20.818;2024-01-16T11:40:55;3.00;3.00;1.50
59179;PMS7003;44956;52.422;20.818;2024-01-16T11:43:58;0.25;0.25;0.00
59179;PMS7003;44956;52.422;20.818;2024-01-16T11:47:01;3.00;3.00;1.00
59179;PMS7003;44956;52.422;20.818;2024-01-16T11:50:09;4.00;4.00;3.00
59179;PMS7003;44956;52.422;20.818;2024-01-16T11:53:47;3.75;3.75;1.50
59179;PMS7003;44956;52.422;20.818;2024-01-16T12:00:20;6.75;3.50;1.00
59179;PMS7003;44956;52.422;20.818;2024-01-16T12:03:24;5.00;3.50;0.00
59179;PMS7003;44956;52.422;20.818;2024-01-16T12:06:36;12.50;3.50;1.00
59179;PMS7003;44956;52.422;20.818;2024-01-16T12:09:43;4.00;3.00;1.00
59179;PMS7003;44956;52.422;20.818;2024-01-16T12:12:46;5.50;4.00;2.50
59179;PMS7003;44956;52.422;20.818;2024-01-16T12:16:03;6.75;3.00;0.75
59179;PMS7003;44956;52.422;20.818;2024-01-16T12:19:10;3.50;3.00;2.50
59179;PMS7003;44956;52.422;20.818;2024-01-16T12:22:14;2.75;2.75;1.00
59179;PMS7003;44956;52.422;20.818;2024-01-16T12:25:19;3.50;3.50;3.00
59179;PMS7003;44956;52.422;20.818;2024-01-16T12:28:22;3.50;3.00;1.00
59179;PMS7003;44956;52.422;20.818;2024-01-16T12:31:34;4.00;4.00;3.00
59179;PMS7003;44956;52.422;20.818;2024-01-16T12:34:47;3.00;3.00;1.00
59179;PMS7003;44956;52.422;20.818;2024-01-16T12:37:58;7.00;6.00;3.00
59179;PMS7003;44956;52.422;20.818;2024-01-16T12:41:02;7.50;3.00;1.50
59179;PMS7003;44956;52.422;20.818;2024-01-16T12:44:09;4.00;3.75;2.50
59179;PMS7003;44956;52.422;20.818;2024-01-16T12:47:18;6.50;3.75;1.50
59179;PMS7003;44956;52.422;20.818;2024-01-16T12:50:22;5.75;3.00;0.00
59179;PMS7003;44956;52.422;20.818;2024-01-16T12:53:25;9.25;4.00;1.00
59179;PMS7003;44956;52.422;20.818;2024-01-16T12:56:28;9.25;6.00;3.00
59179;PMS7003;44956;52.422;20.818;2024-01-16T12:59:39;7.00;6.00;3.00
59179;PMS7003;44956;52.422;20.818;2024-01-16T13:02:42;10.75;6.50;3.25
59179;PMS7003;44956;52.422;20.818;2024-01-16T13:05:55;8.75;7.50;4.00
59179;PMS7003;44956;52.422;20.818;2024-01-16T13:09:04;9.25;7.50;3.75
59179;PMS7003;44956;52.422;20.818;2024-01-16T13:12:19;6.00;4.00;2.50
59179;PMS7003;44956;52.422;20.818;2024-01-16T13:15:23;13.00;6.00;3.00
59179;PMS7003;44956;52.422;20.818;2024-01-16T13:18:26;6.00;6.00;3.00
59179;PMS7003;44956;52.422;20.818;2024-01-16T13:21:30;9.00;7.00;4.00
59179;PMS7003;44956;52.422;20.818;2024-01-16T13:24:33;6.75;4.00;3.50
59179;PMS7003;44956;52.422;20.818;2024-01-16T13:27:36;10.75;8.00;3.50
59179;PMS7003;44956;52.422;20.818;2024-01-16T13:30:39;12.50;9.00;3.75
59179;PMS7003;44956;52.422;20.818;2024-01-16T13:33:49;10.50;8.00;4.00
59179;PMS7003;44956;52.422;20.818;2024-01-16T13:36:51;10.00;9.25;6.00
59179;PMS7003;44956;52.422;20.818;2024-01-16T13:40:15;11.00;7.50;4.00
59179;PMS7003;44956;52.422;20.818;2024-01-16T13:43:24;15.75;9.75;6.00
59179;PMS7003;44956;52.422;20.818;2024-01-16T13:46:27;17.25;12.50;6.00
59179;PMS7003;44956;52.422;20.818;2024-01-16T13:49:50;11.50;9.25;6.00
59179;PMS7003;44956;52.422;20.818;2024-01-16T13:52:53;8.50;7.00;3.25
59179;PMS7003;44956;52.422;20.818;2024-01-16T13:55:56;7.50;6.00;1.00
59179;PMS7003;44956;52.422;20.818;2024-01-16T13:59:00;10.00;8.50;4.00
59179;PMS7003;44956;52.422;20.818;2024-01-16T14:02:03;12.00;9.50;6.00
59179;PMS7003;44956;52.422;20.818;2024-01-16T14:05:11;12.50;9.50;6.75
59179;PMS7003;44956;52.422;20.818;2024-01-16T14:08:20;13.00;12.75;8.50
59179;PMS7003;44956;52.422;20.818;2024-01-16T14:11:24;9.00;8.50;6.50
59179;PMS7003;44956;52.422;20.818;2024-01-16T14:14:27;13.75;12.75;6.75
59179;PMS7003;44956;52.422;20.818;2024-01-16T14:17:30;13.50;13.25;6.00
59179;PMS7003;44956;52.422;20.818;2024-01-16T14:20:33;16.75;11.50;6.25
59179;PMS7003;44956;52.422;20.818;2024-01-16T14:23:36;10.50;9.50;6.00
59179;PMS7003;44956;52.422;20.818;2024-01-16T14:26:41;12.25;10.50;4.00
59179;PMS7003;44956;52.422;20.818;2024-01-16T14:29:46;11.50;9.75;6.50
59179;PMS7003;44956;52.422;20.818;2024-01-16T14:32:49;14.50;10.75;5.50
59179;PMS7003;44956;52.422;20.818;2024-01-16T14:35:52;14.00;9.00;5.50
59179;PMS7003;44956;52.422;20.818;2024-01-16T14:38:55;9.00;9.00;5.00
59179;PMS7003;44956;52.422;20.818;2024-01-16T14:41:58;9.00;8.00;3.25
59179;PMS7003;44956;52.422;20.818;2024-01-16T14:45:01;11.00;8.50;6.00
59179;PMS7003;44956;52.422;20.818;2024-01-16T14:48:04;10.00;9.00;4.00
59179;PMS7003;44956;52.422;20.818;2024-01-16T14:51:07;15.75;12.75;7.00
59179;PMS7003;44956;52.422;20.818;2024-01-16T14:54:11;15.25;11.75;7.00
59179;PMS7003;44956;52.422;20.818;2024-01-16T14:57:13;17.50;12.00;7.00
59179;PMS7003;44956;52.422;20.818;2024-01-16T15:00:16;16.50;15.50;8.00
59179;PMS7003;44956;52.422;20.818;2024-01-16T15:03:24;18.50;13.50;9.00
59179;PMS7003;44956;52.422;20.818;2024-01-16T15:06:28;16.75;14.50;7.50
59179;PMS7003;44956;52.422;20.818;2024-01-16T15:09:31;13.00;13.00;8.50
59179;PMS7003;44956;52.422;20.818;2024-01-16T15:12:40;18.50;15.50;6.75
59179;PMS7003;44956;52.422;20.818;2024-01-16T15:15:46;12.00;12.00;7.50
59179;PMS7003;44956;52.422;20.818;2024-01-16T15:18:49;11.50;8.50;3.00
59179;PMS7003;44956;52.422;20.818;2024-01-16T15:21:52;9.50;9.50;8.50
59179;PMS7003;44956;52.422;20.818;2024-01-16T15:24:55;20.00;15.00;9.25
59179;PMS7003;44956;52.422;20.818;2024-01-16T15:27:58;13.75;12.00;7.25
59179;PMS7003;44956;52.422;20.818;2024-01-16T15:31:00;15.25;11.00;7.00
59179;PMS7003;44956;52.422;20.818;2024-01-16T15:34:11;15.75;10.25;7.00
59179;PMS7003;44956;52.422;20.818;2024-01-16T15:37:17;12.50;11.25;6.00
59179;PMS7003;44956;52.422;20.818;2024-01-16T15:40:20;15.75;12.75;7.00
59179;PMS7003;44956;52.422;20.818;2024-01-16T15:43:24;17.50;16.00;7.00
59179;PMS7003;44956;52.422;20.818;2024-01-16T15:46:28;12.75;11.50;7.25
59179;PMS7003;44956;52.422;20.818;2024-01-16T15:49:30;28.25;19.00;9.00
59179;PMS7003;44956;52.422;20.818;2024-01-16T15:52:34;15.75;15.75;9.00
59179;PMS7003;44956;52.422;20.818;2024-01-16T15:55:37;19.00;14.75;9.25
59179;PMS7003;44956;52.422;20.818;2024-01-16T15:58:41;17.75;13.00;6.50
59179;PMS7003;44956;52.422;20.818;2024-01-16T16:01:44;20.50;15.75;8.50
59179;PMS7003;44956;52.422;20.818;2024-01-16T16:04:47;20.00;17.00;10.00
59179;PMS7003;44956;52.422;20.818;2024-01-16T16:07:50;21.75;17.00;9.00
59179;PMS7003;44956;52.422;20.818;2024-01-16T16:10:53;14.75;14.75;8.00
59179;PMS7003;44956;52.422;20.818;2024-01-16T16:13:55;17.50;12.75;7.00
59179;PMS7003;44956;52.422;20.818;2024-01-16T16:16:58;31.75;20.25;13.00
59179;PMS7003;44956;52.422;20.818;2024-01-16T16:20:04;24.50;23.50;12.25
59179;PMS7003;44956;52.422;20.818;2024-01-16T16:23:07;28.00;24.75;16.50
59179;PMS7003;44956;52.422;20.818;2024-01-16T16:26:10;35.75;24.00;15.25
59179;PMS7003;44956;52.422;20.818;2024-01-16T16:29:14;35.75;27.75;15.25
59179;PMS7003;44956;52.422;20.818;2024-01-16T16:32:16;38.00;29.00;16.00
59179;PMS7003;44956;52.422;20.818;2024-01-16T16:35:19;38.75;31.50;18.50
59179;PMS7003;44956;52.422;20.818;2024-01-16T16:38:22;40.75;36.00;21.00
59179;PMS7003;44956;52.422;20.818;2024-01-16T16:41:26;36.50;30.75;20.75
59179;PMS7003;44956;52.422;20.818;2024-01-16T16:44:29;46.00;36.25;22.00
59179;PMS7003;44956;52.422;20.818;2024-01-16T16:47:33;40.00;33.50;21.50
59179;PMS7003;44956;52.422;20.818;2024-01-16T16:50:35;38.25;28.00;15.75
59179;PMS7003;44956;52.422;20.818;2024-01-16T16:53:39;41.25;33.50;19.50
59179;PMS7003;44956;52.422;20.818;2024-01-16T16:56:45;42.50;34.00;18.25
59179;PMS7003;44956;52.422;20.818;2024-01-16T16:59:48;37.00;32.50;16.00
59179;PMS7003;44956;52.422;20.818;2024-01-16T17:02:52;34.00;26.00;15.50
59179;PMS7003;44956;52.422;20.818;2024-01-16T17:05:56;35.00;29.50;17.50
59179;PMS7003;44956;52.422;20.818;2024-01-16T17:09:00;32.50;27.50;17.50
59179;PMS7003;44956;52.422;20.818;2024-01-16T17:12:04;43.25;33.25;15.50
59179;PMS7003;44956;52.422;20.818;2024-01-16T17:15:07;35.50;24.50;16.50
59179;PMS7003;44956;52.422;20.818;2024-01-16T17:18:10;35.75;31.00;18.00
59179;PMS7003;44956;52.422;20.818;2024-01-16T17:21:13;45.50;33.75;21.25
59179;PMS7003;44956;52.422;20.818;2024-01-16T17:24:17;51.25;36.25;21.50
59179;PMS7003;44956;52.422;20.818;2024-01-16T17:27:20;41.25;33.00;18.25
59179;PMS7003;44956;52.422;20.818;2024-01-16T17:30:25;34.25;29.25;17.25
59179;PMS7003;44956;52.422;20.818;2024-01-16T17:33:27;39.50;31.75;19.50
59179;PMS7003;44956;52.422;20.818;2024-01-16T17:36:31;40.00;35.25;18.75
59179;PMS7003;44956;52.422;20.818;2024-01-16T17:39:34;38.50;33.75;21.00
59179;PMS7003;44956;52.422;20.818;2024-01-16T17:42:40;33.50;29.50;20.50